Time;durP1;ratioP1;P1;durP2;ratioP2;P2;SDS_P1;SDS_P2;PMS_P1;PMS_P2;Temp;Humidity;BMP_temperature;BMP_pressure;BME280_temperature;BME280_humidity;BME280_pressure;Samples;Min_cycle;Max_cycle;Signal;HPM_P1;HPM_P2
2022/11/12 00:00:34;;;;;;;4.80;3.42;;;15.60;99.90;;;;;;5092130;28;20107;-77
2022/11/12 00:03:00;;;;;;;5.57;3.70;;;15.60;99.90;;;;;;5090279;28;20111;-76
2022/11/12 00:05:26;;;;;;;4.88;3.83;;;15.60;99.90;;;;;;5092095;28;20473;-77
2022/11/12 00:07:52;;;;;;;4.90;3.65;;;15.70;99.90;;;;;;5091698;28;20035;-77
2022/11/12 00:10:17;;;;;;;4.13;3.35;;;15.70;99.90;;;;;;5091830;28;20032;-76
2022/11/12 00:12:43;;;;;;;5.18;3.60;;;15.70;99.90;;;;;;5091523;28;20031;-76
2022/11/12 00:15:10;;;;;;;6.95;3.58;;;15.60;99.90;;;;;;5091777;28;20059;-77
2022/11/12 00:17:35;;;;;;;3.70;3.00;;;15.70;99.90;;;;;;5091574;28;20020;-77
2022/11/12 00:20:02;;;;;;;4.68;2.97;;;15.70;99.90;;;;;;5091954;28;20477;-77
2022/11/12 00:22:28;;;;;;;4.40;3.42;;;15.70;99.90;;;;;;5095422;28;20024;-77
2022/11/12 00:24:53;;;;;;;4.30;3.30;;;15.70;99.90;;;;;;5095087;28;20445;-77
2022/11/12 00:27:19;;;;;;;4.38;3.60;;;15.60;99.90;;;;;;5095327;28;20031;-76
2022/11/12 00:29:45;;;;;;;5.25;3.58;;;15.60;99.90;;;;;;5095324;28;20020;-76
2022/11/12 00:32:11;;;;;;;4.30;3.40;;;15.60;99.90;;;;;;5093472;28;20165;-76
2022/11/12 00:34:37;;;;;;;4.95;3.80;;;15.70;99.90;;;;;;5094879;28;20035;-76
2022/11/12 00:37:03;;;;;;;6.47;4.00;;;15.70;99.90;;;;;;5094666;28;20016;-76
2022/11/12 00:39:29;;;;;;;5.82;3.70;;;15.60;99.90;;;;;;5093493;28;20477;-76
2022/11/12 00:41:55;;;;;;;6.32;3.60;;;15.60;99.90;;;;;;5103939;28;20022;-76
2022/11/12 00:44:21;;;;;;;4.53;3.40;;;15.60;99.90;;;;;;5096610;28;20036;-76
2022/11/12 00:46:47;;;;;;;5.05;3.70;;;15.70;99.90;;;;;;5093189;28;20020;-76
2022/11/12 00:49:13;;;;;;;4.70;4.10;;;15.60;99.90;;;;;;5094701;28;20028;-76
2022/11/12 00:51:39;;;;;;;6.30;4.15;;;15.70;99.90;;;;;;5093023;28;20073;-76
2022/11/12 00:54:05;;;;;;;6.22;3.90;;;15.60;99.90;;;;;;5093230;28;20079;-76
2022/11/12 00:56:31;;;;;;;6.70;3.67;;;15.70;99.90;;;;;;5094865;28;20024;-76
2022/11/12 00:58:57;;;;;;;4.95;4.00;;;15.60;99.90;;;;;;5094643;28;20428;-76
2022/11/12 01:01:23;;;;;;;6.97;3.75;;;15.70;99.90;;;;;;5093051;28;20020;-76
2022/11/12 01:03:49;;;;;;;4.30;3.90;;;15.70;99.90;;;;;;5094524;28;20051;-76
2022/11/12 01:06:18;;;;;;;7.60;4.63;;;15.60;99.90;;;;;;5094419;28;20028;-76
2022/11/12 01:08:44;;;;;;;4.30;3.80;;;15.50;99.90;;;;;;5094200;28;20089;-76
2022/11/12 01:11:17;;;;;;;5.22;3.97;;;15.60;99.90;;;;;;5094515;28;20474;-76
2022/11/12 01:13:45;;;;;;;4.68;3.72;;;15.60;99.90;;;;;;5094122;28;20043;-76
2022/11/12 01:16:15;;;;;;;4.30;3.63;;;15.50;99.90;;;;;;5094298;28;20039;-76
2022/11/12 01:18:41;;;;;;;4.75;3.58;;;15.50;99.90;;;;;;5093919;28;20529;-76
2022/11/12 01:21:08;;;;;;;5.47;3.75;;;15.50;99.90;;;;;;5094028;28;20102;-76
2022/11/12 01:23:36;;;;;;;4.65;3.55;;;15.50;99.90;;;;;;5092592;28;20040;-76
2022/11/12 01:26:10;;;;;;;4.45;3.50;;;15.50;99.90;;;;;;5093984;28;20069;-76
2022/11/12 01:28:37;;;;;;;4.47;3.53;;;15.50;99.90;;;;;;5093926;28;20035;-76
2022/11/12 01:31:30;;;;;;;5.65;4.18;;;15.60;99.90;;;;;;5092484;28;20489;-76
2022/11/12 01:33:59;;;;;;;8.02;3.95;;;15.60;99.90;;;;;;5091161;28;20114;-76
2022/11/12 01:36:27;;;;;;;4.40;3.58;;;15.60;99.90;;;;;;5092548;28;20036;-76
2022/11/12 01:38:54;;;;;;;5.90;3.58;;;15.60;99.90;;;;;;5093782;28;20028;-76
2022/11/12 01:41:26;;;;;;;3.75;2.97;;;15.50;99.90;;;;;;5096604;28;20100;-76
2022/11/12 01:44:10;;;;;;;4.72;3.42;;;15.60;99.90;;;;;;5099381;28;20093;-76
2022/11/12 01:47:09;;;;;;;4.90;3.22;;;15.60;99.90;;;;;;5093752;28;20024;-76
2022/11/12 01:49:34;;;;;;;11.55;4.13;;;15.60;99.90;;;;;;5093372;28;20112;-76
2022/11/12 01:52:12;;;;;;;6.32;3.50;;;15.60;99.90;;;;;;5093473;28;20098;-76
2022/11/12 01:54:39;;;;;;;5.72;3.72;;;15.60;99.90;;;;;;5093707;28;20038;-76
2022/11/12 01:57:06;;;;;;;6.07;3.60;;;15.60;99.90;;;;;;5093527;28;20016;-76
2022/11/12 01:59:44;;;;;;;5.47;3.63;;;15.70;99.90;;;;;;5093317;28;20020;-76
2022/11/12 02:02:10;;;;;;;6.22;4.05;;;15.60;99.90;;;;;;5093213;28;20107;-77
2022/11/12 02:04:38;;;;;;;6.47;3.83;;;15.60;99.90;;;;;;5093233;28;20028;-76
2022/11/12 02:07:06;;;;;;;5.40;3.30;;;15.60;99.90;;;;;;5093407;28;20056;-76
2022/11/12 02:09:32;;;;;;;4.18;3.53;;;15.50;99.90;;;;;;5091749;28;20055;-76
2022/11/12 02:11:58;;;;;;;6.95;4.25;;;15.50;99.90;;;;;;5091553;28;20028;-76
2022/11/12 02:14:24;;;;;;;7.18;4.07;;;15.60;99.90;;;;;;5093166;28;20020;-76
2022/11/12 02:16:50;;;;;;;7.25;4.15;;;15.60;99.90;;;;;;5092963;28;20031;-76
2022/11/12 02:19:16;;;;;;;7.35;4.22;;;15.50;99.90;;;;;;5092921;28;20481;-76
2022/11/12 02:21:42;;;;;;;4.20;3.35;;;15.50;99.90;;;;;;5093088;28;20024;-76
2022/11/12 02:24:11;;;;;;;6.07;3.83;;;15.50;99.90;;;;;;5092783;28;20066;-76
2022/11/12 02:26:41;;;;;;;4.22;3.63;;;15.40;99.90;;;;;;5093329;28;20058;-76
2022/11/12 02:29:07;;;;;;;7.90;3.80;;;15.40;99.90;;;;;;5092952;28;20028;-76
2022/11/12 02:31:34;;;;;;;4.57;3.38;;;15.40;99.90;;;;;;5092495;28;20261;-76
2022/11/12 02:33:59;;;;;;;8.60;3.95;;;15.40;99.90;;;;;;5093001;28;20024;-76
2022/11/12 02:36:25;;;;;;;5.65;3.40;;;15.30;99.90;;;;;;5092860;28;20024;-76
2022/11/12 02:38:52;;;;;;;4.35;3.60;;;15.30;99.90;;;;;;5092765;28;20066;-76
2022/11/12 02:41:17;;;;;;;4.95;3.75;;;15.30;99.90;;;;;;5096510;28;20100;-76
2022/11/12 02:43:43;;;;;;;3.83;3.20;;;15.30;99.90;;;;;;5099313;28;20524;-76
2022/11/12 02:46:09;;;;;;;4.00;3.20;;;15.30;99.90;;;;;;5092247;28;20028;-76
2022/11/12 02:48:35;;;;;;;5.32;3.63;;;15.10;99.90;;;;;;5092463;28;20031;-76
2022/11/12 02:51:01;;;;;;;4.30;3.55;;;15.20;99.90;;;;;;5092687;28;20523;-76
2022/11/12 02:53:26;;;;;;;4.47;3.08;;;15.10;99.90;;;;;;5092638;28;20634;-76
2022/11/12 02:55:52;;;;;;;5.65;3.42;;;15.00;99.90;;;;;;5092659;28;20393;-76
2022/11/12 02:58:18;;;;;;;4.88;3.50;;;15.00;99.90;;;;;;5092511;28;20048;-75
2022/11/12 03:00:44;;;;;;;3.25;2.80;;;15.00;99.90;;;;;;5092019;28;20025;-76
2022/11/12 03:03:09;;;;;;;4.90;3.45;;;15.00;99.90;;;;;;5092597;28;20024;-76
2022/11/12 03:05:35;;;;;;;5.30;3.33;;;15.10;99.90;;;;;;5091002;28;20028;-76
2022/11/12 03:08:04;;;;;;;3.63;3.20;;;15.10;99.90;;;;;;5092223;28;20110;-76
2022/11/12 03:10:30;;;;;;;4.63;2.75;;;15.00;99.90;;;;;;5092215;28;20021;-76
2022/11/12 03:12:58;;;;;;;4.15;3.22;;;15.00;99.90;;;;;;5092124;28;20461;-76
2022/11/12 03:15:24;;;;;;;3.55;3.13;;;15.00;99.90;;;;;;5092001;28;20030;-76
2022/11/12 03:17:49;;;;;;;3.40;3.13;;;15.00;99.90;;;;;;5090758;28;20118;-76
2022/11/12 03:20:15;;;;;;;3.15;2.88;;;14.90;99.90;;;;;;5092479;28;20089;-76
2022/11/12 03:22:41;;;;;;;3.58;3.05;;;14.90;99.90;;;;;;5092195;28;20038;-75
2022/11/12 03:25:08;;;;;;;2.92;2.63;;;14.70;99.90;;;;;;5091849;28;20044;-76
2022/11/12 03:27:33;;;;;;;3.65;2.70;;;14.70;99.90;;;;;;5092390;28;20073;-76
2022/11/12 03:29:59;;;;;;;3.20;2.90;;;14.60;99.90;;;;;;5090489;28;20024;-76
2022/11/12 03:32:25;;;;;;;3.58;2.90;;;14.50;99.90;;;;;;5092007;28;20024;-75
2022/11/12 03:34:51;;;;;;;3.80;2.28;;;14.50;99.90;;;;;;5091974;28;20401;-76
2022/11/12 03:37:17;;;;;;;3.88;2.63;;;14.60;99.90;;;;;;5092071;28;20543;-76
2022/11/12 03:39:43;;;;;;;3.58;2.90;;;14.50;99.90;;;;;;5092119;28;20537;-76
2022/11/12 03:42:08;;;;;;;4.32;3.05;;;14.40;99.90;;;;;;5102797;28;20493;-76
2022/11/12 03:44:34;;;;;;;4.22;3.08;;;14.30;99.90;;;;;;5090443;28;20594;-76
2022/11/12 03:47:00;;;;;;;3.42;2.97;;;14.50;99.90;;;;;;5090636;28;20028;-75
2022/11/12 03:49:25;;;;;;;4.57;3.30;;;14.60;99.90;;;;;;5091812;28;20023;-75
2022/11/12 03:51:51;;;;;;;4.45;3.20;;;14.70;99.90;;;;;;5091860;28;20481;-76
2022/11/12 03:54:18;;;;;;;3.58;2.75;;;14.70;99.90;;;;;;5092025;28;20028;-76
2022/11/12 03:56:44;;;;;;;5.43;3.30;;;14.70;99.90;;;;;;5093821;28;20048;-76
2022/11/12 03:59:10;;;;;;;3.78;3.38;;;14.70;99.90;;;;;;5095867;28;20121;-76
2022/11/12 04:01:35;;;;;;;3.58;2.88;;;14.70;99.90;;;;;;5095569;28;20541;-76
2022/11/12 04:04:01;;;;;;;4.38;3.13;;;14.80;99.90;;;;;;5094494;28;20435;-76
2022/11/12 04:09:11;;;;;;;3.67;3.38;;;14.60;99.90;;;;;;5095527;28;20035;-76
2022/11/12 04:11:36;;;;;;;3.35;3.05;;;14.50;99.90;;;;;;5094028;28;20028;-76
2022/11/12 04:14:02;;;;;;;3.47;3.10;;;14.60;99.90;;;;;;5095366;28;20028;-76
2022/11/12 04:22:05;;;;;;;7.25;3.97;;;14.70;99.90;;;;;;5095890;28;20027;-76
2022/11/12 04:27:29;;;;;;;6.38;3.67;;;14.80;99.90;;;;;;5095635;28;20030;-76
2022/11/12 04:32:49;;;;;;;5.05;3.70;;;14.80;99.90;;;;;;5095154;28;20035;-76
2022/11/12 04:35:15;;;;;;;5.00;3.17;;;14.80;99.90;;;;;;5093711;28;20028;-76
2022/11/12 04:37:44;;;;;;;5.05;3.58;;;14.80;99.90;;;;;;5095148;28;20062;-76
2022/11/12 04:45:46;;;;;;;4.05;3.33;;;14.80;99.90;;;;;;5095247;28;20527;-75
2022/11/12 04:48:12;;;;;;;3.83;3.13;;;14.80;99.90;;;;;;5094933;28;20466;-76
2022/11/12 04:50:38;;;;;;;4.43;2.95;;;14.90;99.90;;;;;;5094730;28;20028;-75
2022/11/12 04:53:04;;;;;;;4.80;3.42;;;14.90;99.90;;;;;;5094511;28;20077;-76
2022/11/12 04:55:31;;;;;;;6.05;3.20;;;15.00;99.90;;;;;;5094521;28;20107;-76
2022/11/12 04:57:56;;;;;;;4.75;3.72;;;15.00;99.90;;;;;;5093189;28;20024;-76
2022/11/12 05:00:22;;;;;;;4.13;3.42;;;15.00;99.90;;;;;;5093141;28;20032;-75
2022/11/12 05:02:51;;;;;;;3.85;3.20;;;15.00;99.90;;;;;;5092858;28;20073;-76
2022/11/12 05:05:17;;;;;;;3.50;3.20;;;15.00;99.90;;;;;;5094826;28;20028;-75
2022/11/12 05:07:43;;;;;;;5.25;3.13;;;14.90;99.90;;;;;;5093057;28;20024;-76
2022/11/12 05:10:09;;;;;;;4.85;3.78;;;15.00;99.90;;;;;;5094398;28;20149;-76
2022/11/12 05:12:35;;;;;;;4.60;3.30;;;14.90;99.90;;;;;;5093991;28;20478;-76
2022/11/12 05:15:01;;;;;;;5.05;3.20;;;14.80;99.90;;;;;;5093075;28;20034;-76
2022/11/12 05:17:27;;;;;;;5.88;3.30;;;14.90;99.90;;;;;;5094545;28;20016;-75
2022/11/12 05:19:53;;;;;;;4.97;3.60;;;14.90;99.90;;;;;;5094146;28;20028;-75
2022/11/12 05:22:19;;;;;;;4.72;3.58;;;14.90;99.90;;;;;;5092776;28;20047;-75
2022/11/12 05:24:45;;;;;;;5.22;3.58;;;14.80;99.90;;;;;;5093754;28;20052;-76
2022/11/12 05:27:13;;;;;;;5.30;3.58;;;14.80;99.90;;;;;;5093780;28;20649;-76
2022/11/12 05:29:39;;;;;;;4.97;3.40;;;14.80;99.90;;;;;;5094134;28;20543;-76
2022/11/12 05:32:09;;;;;;;5.07;3.72;;;14.80;99.90;;;;;;5093705;28;20105;-75
2022/11/12 05:34:35;;;;;;;7.10;4.20;;;14.70;99.90;;;;;;5094285;28;20031;-76
2022/11/12 05:37:02;;;;;;;5.75;3.38;;;14.80;99.90;;;;;;5092605;28;20020;-75
2022/11/12 05:39:28;;;;;;;5.63;3.42;;;14.80;99.90;;;;;;5093843;28;20093;-75
2022/11/12 05:41:54;;;;;;;5.13;3.08;;;14.80;99.90;;;;;;5102409;28;20468;-76
2022/11/12 05:44:20;;;;;;;4.80;3.30;;;14.70;99.90;;;;;;5095648;28;20039;-75
2022/11/12 05:46:46;;;;;;;5.07;3.47;;;14.70;99.90;;;;;;5093468;28;20019;-76
2022/11/12 05:49:11;;;;;;;5.68;4.22;;;14.80;99.90;;;;;;5093754;28;20028;-75
2022/11/12 05:51:37;;;;;;;5.90;3.72;;;14.80;99.90;;;;;;5093463;28;20021;-76
2022/11/12 05:54:03;;;;;;;4.75;3.30;;;14.80;99.90;;;;;;5093617;28;20028;-75
2022/11/12 05:56:29;;;;;;;4.45;3.25;;;14.70;99.90;;;;;;5093082;28;20069;-75
2022/11/12 05:58:55;;;;;;;4.38;3.55;;;14.80;99.90;;;;;;5092208;28;20059;-75
2022/11/12 06:01:21;;;;;;;4.22;3.72;;;14.80;99.90;;;;;;5093366;28;20049;-75
2022/11/12 06:03:46;;;;;;;4.90;4.05;;;14.80;99.90;;;;;;5093432;28;20039;-75
2022/11/12 06:06:12;;;;;;;3.95;3.55;;;14.70;99.90;;;;;;5093282;28;20508;-75
2022/11/12 06:08:38;;;;;;;4.57;3.30;;;14.70;99.90;;;;;;5091865;28;20444;-76
2022/11/12 06:11:04;;;;;;;5.07;3.92;;;14.70;99.90;;;;;;5092628;28;20012;-75
2022/11/12 06:13:29;;;;;;;5.15;3.40;;;14.60;99.90;;;;;;5093050;28;20481;-75
2022/11/12 06:15:56;;;;;;;4.72;3.63;;;14.70;99.90;;;;;;5091700;28;20050;-75
2022/11/12 06:18:23;;;;;;;7.53;3.53;;;14.70;99.90;;;;;;5092518;28;20028;-76
2022/11/12 06:21:18;;;;;;;6.38;4.03;;;14.70;99.90;;;;;;5093059;28;20020;-75
2022/11/12 06:23:34;;;;;;;5.43;3.40;;;14.80;99.90;;;;;;5092482;28;20425;-75
2022/11/12 06:26:01;;;;;;;5.57;3.90;;;14.70;99.90;;;;;;5091567;28;20020;-75
2022/11/12 06:28:27;;;;;;;5.95;3.70;;;14.80;99.90;;;;;;5093187;28;20082;-75
2022/11/12 06:30:53;;;;;;;9.88;3.88;;;14.70;99.90;;;;;;5092758;28;20020;-75
2022/11/12 06:33:19;;;;;;;7.50;3.90;;;14.80;99.90;;;;;;5091315;28;20462;-75
2022/11/12 06:35:45;;;;;;;4.53;3.33;;;14.80;99.90;;;;;;5092937;28;20031;-75
2022/11/12 06:38:10;;;;;;;7.07;4.00;;;14.80;99.90;;;;;;5090992;28;20119;-75
2022/11/12 06:40:36;;;;;;;4.43;3.58;;;14.70;99.90;;;;;;5092860;28;20019;-75
2022/11/12 06:43:02;;;;;;;6.35;3.63;;;14.70;99.90;;;;;;5103748;28;20028;-75
2022/11/12 06:45:27;;;;;;;5.05;3.67;;;14.70;99.90;;;;;;5091251;28;20537;-76
2022/11/12 06:47:57;;;;;;;6.50;4.20;;;14.70;99.90;;;;;;5092501;28;20036;-75
2022/11/12 06:50:23;;;;;;;5.85;3.67;;;14.80;99.90;;;;;;5092595;28;20099;-75
2022/11/12 06:52:49;;;;;;;6.90;3.75;;;14.80;99.90;;;;;;5092144;28;20115;-75
2022/11/12 06:55:14;;;;;;;5.03;3.88;;;14.80;99.90;;;;;;5092870;28;20028;-75
2022/11/12 06:57:40;;;;;;;4.90;3.63;;;14.80;99.90;;;;;;5092373;28;20024;-76
2022/11/12 07:00:07;;;;;;;3.92;3.53;;;14.80;99.90;;;;;;5092854;28;20445;-75
2022/11/12 07:02:33;;;;;;;7.68;3.65;;;14.90;99.90;;;;;;5090931;28;20081;-75
2022/11/12 07:04:58;;;;;;;5.75;3.58;;;14.90;99.90;;;;;;5092853;28;20437;-75
2022/11/12 07:07:24;;;;;;;5.03;3.30;;;14.80;99.90;;;;;;5091970;28;20520;-75
2022/11/12 07:09:49;;;;;;;4.70;3.83;;;14.90;99.90;;;;;;5090876;28;20031;-75
2022/11/12 07:12:15;;;;;;;4.40;3.72;;;14.90;99.90;;;;;;5091879;28;20104;-75
2022/11/12 07:14:41;;;;;;;6.00;3.90;;;14.90;99.90;;;;;;5090901;28;20024;-75
2022/11/12 07:17:06;;;;;;;5.97;4.05;;;14.90;99.90;;;;;;5092141;28;20485;-75
2022/11/12 07:19:32;;;;;;;5.30;3.17;;;14.90;99.90;;;;;;5092178;28;20416;-75
2022/11/12 07:21:58;;;;;;;5.78;4.18;;;14.90;99.90;;;;;;5091764;28;20405;-75
2022/11/12 07:24:24;;;;;;;4.28;3.60;;;14.90;99.90;;;;;;5091962;28;20043;-75
2022/11/12 07:26:49;;;;;;;15.13;4.18;;;14.90;99.90;;;;;;5090798;28;20024;-75
2022/11/12 07:29:15;;;;;;;5.63;3.80;;;14.90;99.90;;;;;;5092325;28;20024;-75
2022/11/12 07:31:40;;;;;;;5.55;4.18;;;15.00;99.90;;;;;;5095320;28;20055;-75
2022/11/12 07:34:06;;;;;;;5.78;3.75;;;15.00;99.90;;;;;;5096463;28;20036;-75
2022/11/12 07:36:32;;;;;;;4.40;3.90;;;15.00;99.90;;;;;;5096101;28;20024;-75
2022/11/12 07:38:57;;;;;;;5.28;4.25;;;15.10;99.90;;;;;;5096257;28;20047;-75
2022/11/12 07:41:24;;;;;;;4.25;3.85;;;15.10;99.90;;;;;;5099388;28;20488;-75
2022/11/12 07:43:51;;;;;;;5.32;3.88;;;15.10;99.90;;;;;;5101967;28;20089;-75
2022/11/12 07:46:23;;;;;;;5.50;4.35;;;15.20;99.90;;;;;;5095855;28;20024;-76
2022/11/12 07:48:49;;;;;;;4.90;4.00;;;15.30;99.90;;;;;;5096146;28;20024;-75
2022/11/12 07:51:20;;;;;;;4.45;3.63;;;15.30;99.90;;;;;;5094283;28;20036;-75
2022/11/12 07:53:47;;;;;;;5.22;4.25;;;15.30;99.90;;;;;;5095911;28;20017;-75
2022/11/12 07:56:16;;;;;;;6.43;4.63;;;15.30;99.90;;;;;;5095906;28;20077;-75
2022/11/12 07:58:42;;;;;;;7.72;4.20;;;15.30;99.90;;;;;;5095653;28;20017;-76
2022/11/12 08:01:31;;;;;;;4.82;4.43;;;15.30;99.90;;;;;;5094318;28;20051;-75
2022/11/12 08:03:58;;;;;;;4.25;3.85;;;15.40;99.90;;;;;;5094210;28;20028;-76
2022/11/12 08:06:25;;;;;;;4.68;4.05;;;15.40;99.90;;;;;;5094058;28;20020;-76
2022/11/12 08:08:55;;;;;;;6.60;4.82;;;15.50;99.90;;;;;;5095580;28;20036;-75
2022/11/12 08:11:21;;;;;;;7.47;4.53;;;15.60;99.90;;;;;;5093897;28;20020;-75
2022/11/12 08:13:47;;;;;;;6.88;4.10;;;15.70;99.90;;;;;;5095131;28;20027;-75
2022/11/12 08:16:13;;;;;;;7.20;4.57;;;15.70;99.90;;;;;;5093879;28;20032;-76
2022/11/12 08:18:38;;;;;;;6.35;4.85;;;15.70;99.90;;;;;;5093930;28;20020;-76
2022/11/12 08:21:06;;;;;;;6.05;4.68;;;15.70;99.90;;;;;;5095254;28;20557;-76
2022/11/12 08:23:32;;;;;;;6.18;5.20;;;15.70;99.90;;;;;;5095022;28;20051;-76
2022/11/12 08:26:04;;;;;;;5.25;4.35;;;15.90;99.90;;;;;;5094009;28;20107;-76
2022/11/12 08:28:32;;;;;;;6.03;4.50;;;16.00;99.90;;;;;;5093904;28;20058;-76
2022/11/12 08:31:04;;;;;;;6.30;4.75;;;16.00;99.90;;;;;;5093688;28;20016;-76
2022/11/12 08:33:30;;;;;;;5.13;4.72;;;16.20;99.90;;;;;;5093673;28;20059;-76
2022/11/12 08:35:56;;;;;;;6.47;4.80;;;16.40;99.90;;;;;;5093558;28;20431;-76
2022/11/12 08:38:22;;;;;;;6.10;5.43;;;16.80;99.90;;;;;;5092496;28;20060;-76
2022/11/12 08:40:47;;;;;;;8.00;5.45;;;16.60;99.90;;;;;;5093179;28;20047;-76
2022/11/12 08:43:13;;;;;;;7.45;5.53;;;16.80;99.90;;;;;;5104886;28;20148;-76
2022/11/12 08:45:40;;;;;;;5.53;5.03;;;16.90;99.90;;;;;;5093628;28;20044;-76
2022/11/12 08:48:13;;;;;;;6.13;5.28;;;16.60;99.90;;;;;;5093365;28;20114;-76
2022/11/12 08:50:38;;;;;;;5.22;4.72;;;16.60;99.90;;;;;;5092088;28;20026;-76
2022/11/12 08:53:10;;;;;;;5.20;4.72;;;16.50;99.90;;;;;;5093315;28;20028;-76
2022/11/12 08:55:37;;;;;;;5.20;4.70;;;16.50;99.90;;;;;;5093742;28;20016;-76
2022/11/12 08:58:03;;;;;;;6.40;4.88;;;16.70;99.90;;;;;;5093105;28;20031;-76
2022/11/12 09:00:31;;;;;;;5.57;5.03;;;18.40;99.90;;;;;;5092125;28;20020;-76
2022/11/12 09:03:01;;;;;;;5.38;4.85;;;20.30;99.90;;;;;;5091710;28;20123;-76
2022/11/12 09:05:27;;;;;;;4.95;4.47;;;20.90;99.90;;;;;;5093404;28;20106;-76
2022/11/12 09:08:02;;;;;;;6.22;5.20;;;22.00;99.90;;;;;;5093226;28;20027;-76
2022/11/12 09:10:29;;;;;;;6.90;4.80;;;22.30;99.90;;;;;;5092047;28;20032;-76
2022/11/12 09:12:54;;;;;;;5.47;4.55;;;20.50;99.90;;;;;;5092966;28;20039;-76
2022/11/12 09:15:22;;;;;;;4.78;4.15;;;19.10;99.90;;;;;;5091801;28;20385;-76
2022/11/12 09:18:00;;;;;;;5.03;4.53;;;18.40;99.90;;;;;;5092779;28;20032;-76
2022/11/12 09:20:27;;;;;;;6.22;5.20;;;18.20;99.90;;;;;;5093459;28;20099;-76
2022/11/12 09:22:57;;;;;;;5.97;3.95;;;18.10;99.90;;;;;;5093121;28;20268;-76
2022/11/12 09:25:22;;;;;;;4.63;4.22;;;18.00;99.90;;;;;;5045390;28;1380769;-77
2022/11/12 09:27:48;;;;;;;4.82;4.10;;;18.00;99.90;;;;;;5092763;28;20036;-77
2022/11/12 09:30:14;;;;;;;4.85;4.40;;;18.10;99.90;;;;;;5093691;28;20100;-76
2022/11/12 09:32:40;;;;;;;5.03;4.32;;;18.00;99.90;;;;;;5093552;28;20504;-77
2022/11/12 09:35:06;;;;;;;5.32;4.38;;;18.00;99.90;;;;;;5092611;28;20493;-76
2022/11/12 09:37:32;;;;;;;4.43;3.95;;;18.20;99.90;;;;;;5093875;28;20078;-76
2022/11/12 09:39:58;;;;;;;6.03;4.22;;;18.20;99.90;;;;;;5094120;28;20020;-76
2022/11/12 09:42:24;;;;;;;4.95;4.28;;;18.20;99.90;;;;;;5105807;28;20040;-77
2022/11/12 09:45:17;;;;;;;4.45;3.95;;;18.20;99.90;;;;;;5093227;28;20055;-77
2022/11/12 09:47:47;;;;;;;5.63;4.03;;;18.20;99.90;;;;;;5092509;28;20097;-77
2022/11/12 09:50:32;;;;;;;7.32;4.35;;;18.20;99.90;;;;;;5092085;28;20493;-77
2022/11/12 09:53:30;;;;;;;4.57;3.92;;;18.20;99.90;;;;;;5091180;28;20028;-77
2022/11/12 09:55:56;;;;;;;4.97;4.25;;;18.30;99.90;;;;;;5091456;28;20032;-77
2022/11/12 09:58:24;;;;;;;7.55;4.35;;;18.50;99.90;;;;;;5091814;28;20606;-77
2022/11/12 10:00:58;;;;;;;4.65;3.97;;;18.50;99.90;;;;;;5093535;28;20107;-77
2022/11/12 10:03:44;;;;;;;5.10;4.07;;;18.50;99.90;;;;;;5093366;28;20494;-77
2022/11/12 10:06:21;;;;;;;5.45;3.97;;;18.50;99.90;;;;;;5092041;28;20100;-77
2022/11/12 10:09:02;;;;;;;4.65;4.15;;;18.50;99.90;;;;;;5093288;28;20020;-77
2022/11/12 10:16:41;;;;;;;6.65;3.97;;;18.50;99.90;;;;;;5093761;28;20409;-77
2022/11/12 10:18:10;;;;;;;7.32;3.67;;;18.50;99.90;;;;;;5092646;28;20381;-77
2022/11/12 10:20:57;;;;;;;5.55;4.00;;;18.60;99.90;;;;;;5093382;28;20030;-77
2022/11/12 10:23:58;;;;;;;7.38;3.83;;;18.70;99.90;;;;;;5091597;28;20085;-77
2022/11/12 10:26:25;;;;;;;4.40;3.47;;;18.70;99.90;;;;;;5030514;28;20061;-77
2022/11/12 10:28:50;;;;;;;4.60;4.00;;;18.60;99.90;;;;;;5013567;28;20122;-76
2022/11/12 10:31:19;;;;;;;5.63;3.72;;;18.60;99.90;;;;;;5029951;28;20567;-76
2022/11/12 10:33:45;;;;;;;4.82;3.80;;;18.60;99.90;;;;;;5030077;28;20037;-76
2022/11/12 10:36:28;;;;;;;5.00;3.55;;;18.60;99.90;;;;;;5013399;28;20071;-76
2022/11/12 10:38:54;;;;;;;4.60;3.45;;;18.80;99.90;;;;;;5030150;28;20022;-76
2022/11/12 10:41:29;;;;;;;4.22;3.75;;;18.60;99.90;;;;;;5034249;28;20044;-76
2022/11/12 10:44:00;;;;;;;4.30;3.90;;;18.80;99.90;;;;;;5035426;28;20043;-77
2022/11/12 10:46:26;;;;;;;4.70;3.90;;;18.90;99.90;;;;;;5029512;28;20705;-77
2022/11/12 10:49:01;;;;;;;4.90;3.50;;;18.90;99.90;;;;;;5029947;28;20120;-77
2022/11/12 10:51:31;;;;;;;3.95;3.60;;;18.90;99.90;;;;;;5010414;28;20066;-76
2022/11/12 10:53:57;;;;;;;7.47;4.13;;;18.90;99.90;;;;;;5010361;28;20133;-77
2022/11/12 10:56:27;;;;;;;6.75;4.10;;;18.90;99.90;;;;;;4993807;28;20030;-77
2022/11/12 10:59:18;;;;;;;3.63;3.33;;;18.90;99.90;;;;;;5009976;28;20033;-76
2022/11/12 11:01:45;;;;;;;4.43;4.03;;;19.00;99.90;;;;;;5034629;28;20107;-77
2022/11/12 11:04:21;;;;;;;6.15;4.05;;;19.10;99.90;;;;;;5072219;28;20063;-76
2022/11/12 11:06:47;;;;;;;4.68;3.67;;;19.20;99.90;;;;;;5072364;28;20046;-77
2022/11/12 11:09:18;;;;;;;4.60;3.53;;;19.20;99.90;;;;;;5072143;28;20525;-77
2022/11/12 11:11:52;;;;;;;4.13;3.42;;;19.20;99.90;;;;;;5072014;28;20503;-76
2022/11/12 11:14:21;;;;;;;4.03;3.10;;;19.10;99.90;;;;;;5079162;28;20119;-76
2022/11/12 11:17:07;;;;;;;3.38;3.03;;;19.30;99.90;;;;;;5092140;28;20020;-77
2022/11/12 11:19:42;;;;;;;4.40;3.42;;;19.30;99.90;;;;;;5092515;28;20034;-76
2022/11/12 11:22:42;;;;;;;3.72;3.05;;;19.30;99.90;;;;;;5092348;28;20016;-76
2022/11/12 11:25:22;;;;;;;4.00;3.38;;;19.30;99.90;;;;;;5083896;28;20048;-76
2022/11/12 11:28:12;;;;;;;4.63;3.28;;;19.30;99.90;;;;;;5090713;28;20040;-77
2022/11/12 11:30:48;;;;;;;5.43;3.70;;;19.40;99.90;;;;;;5092362;28;20036;-77
2022/11/12 11:33:29;;;;;;;3.70;3.30;;;19.40;99.90;;;;;;5090426;28;20123;-77
2022/11/12 11:36:24;;;;;;;4.30;3.33;;;19.40;99.90;;;;;;5092346;28;20024;-76
2022/11/12 11:39:21;;;;;;;4.20;3.30;;;19.30;99.90;;;;;;5012891;28;20546;-77
2022/11/12 11:41:49;;;;;;;3.35;3.00;;;19.40;99.90;;;;;;5024009;28;20061;-76
2022/11/12 11:44:26;;;;;;;4.93;3.50;;;19.30;99.90;;;;;;5015459;28;20092;-76
2022/11/12 11:47:01;;;;;;;3.53;3.20;;;19.20;99.90;;;;;;5012839;28;20030;-77
2022/11/12 11:49:26;;;;;;;3.42;3.05;;;19.20;99.90;;;;;;5029294;28;20030;-77
2022/11/12 11:52:11;;;;;;;4.50;3.05;;;19.30;99.90;;;;;;5029648;28;20040;-77
2022/11/12 11:55:12;;;;;;;5.05;3.28;;;19.30;99.90;;;;;;5029404;28;20117;-76
2022/11/12 11:58:14;;;;;;;4.25;3.30;;;19.30;99.90;;;;;;5029007;28;20025;-76
2022/11/12 12:00:57;;;;;;;4.93;3.22;;;19.40;99.90;;;;;;5012954;28;20124;-76
2022/11/12 12:03:30;;;;;;;5.03;3.10;;;19.40;99.90;;;;;;5029147;28;20095;-76
2022/11/12 12:06:21;;;;;;;4.18;3.30;;;19.40;99.90;;;;;;5029373;28;20025;-76
2022/11/12 12:09:18;;;;;;;5.30;2.83;;;19.40;99.90;;;;;;5018305;28;20072;-76
2022/11/12 12:11:52;;;;;;;5.68;3.30;;;19.50;99.90;;;;;;5028658;28;20034;-77
2022/11/12 12:14:35;;;;;;;4.05;3.08;;;19.40;99.90;;;;;;5036392;28;20075;-77
2022/11/12 12:17:04;;;;;;;5.43;3.00;;;19.50;99.90;;;;;;5093617;28;20030;-77
2022/11/12 12:19:35;;;;;;;4.10;3.05;;;19.40;99.90;;;;;;5095338;28;20543;-77
2022/11/12 12:22:06;;;;;;;5.95;3.83;;;19.40;99.90;;;;;;5095452;28;20082;-77
2022/11/12 12:24:36;;;;;;;;;;;19.40;99.90;;;;;;5095546;28;20036;-77
2022/11/12 12:27:12;;;;;;;4.07;3.30;;;19.40;99.90;;;;;;5095077;28;19930;-76
2022/11/12 12:29:58;;;;;;;4.18;3.00;;;19.50;99.90;;;;;;5095367;28;20035;-77
2022/11/12 12:32:37;;;;;;;4.68;2.90;;;19.50;99.90;;;;;;5093785;28;20031;-76
2022/11/12 12:35:21;;;;;;;6.45;3.17;;;19.60;99.90;;;;;;5095381;28;20024;-76
2022/11/12 12:37:56;;;;;;;4.30;2.80;;;19.60;99.90;;;;;;5095013;28;20500;-77
2022/11/12 12:40:48;;;;;;;4.70;3.17;;;19.60;99.90;;;;;;5093701;28;20057;-77
2022/11/12 12:43:27;;;;;;;4.20;3.25;;;19.60;99.90;;;;;;5079000;28;20028;-77
2022/11/12 12:45:56;;;;;;;3.40;3.10;;;19.50;99.90;;;;;;5095209;28;20103;-77
2022/11/12 12:48:29;;;;;;;4.93;3.47;;;19.60;99.90;;;;;;5094498;28;20035;-77
2022/11/12 12:50:55;;;;;;;3.97;2.97;;;19.60;99.90;;;;;;5094811;28;20035;-77
2022/11/12 12:53:26;;;;;;;4.07;3.10;;;19.60;99.90;;;;;;5095014;28;20027;-76
2022/11/12 12:55:54;;;;;;;5.68;3.13;;;19.70;99.90;;;;;;5094936;28;20469;-77
2022/11/12 12:58:28;;;;;;;3.30;3.00;;;19.70;99.90;;;;;;5094726;28;20028;-77
2022/11/12 13:01:07;;;;;;;4.00;3.50;;;19.70;99.90;;;;;;5094763;28;20035;-76
2022/11/12 13:03:45;;;;;;;4.70;2.80;;;19.70;99.90;;;;;;5093105;28;20028;-77
2022/11/12 13:06:22;;;;;;;3.08;2.72;;;19.60;99.90;;;;;;5093164;28;20020;-77
2022/11/12 13:08:59;;;;;;;5.28;2.67;;;19.60;99.90;;;;;;5094340;28;20020;-77
2022/11/12 13:14:33;;;;;;;4.10;3.00;;;19.60;99.90;;;;;;5094462;28;20039;-77
2022/11/12 13:17:37;;;;;;;5.03;3.38;;;19.60;99.90;;;;;;5094312;28;20051;-77
2022/11/12 13:20:03;;;;;;;3.50;3.20;;;19.60;99.90;;;;;;5091471;28;20035;-77
2022/11/12 13:22:47;;;;;;;4.90;2.70;;;19.60;99.90;;;;;;5092953;28;20028;-77
2022/11/12 13:25:13;;;;;;;4.07;2.80;;;19.60;99.90;;;;;;5093968;28;20596;-77
2022/11/12 13:27:44;;;;;;;3.17;2.90;;;19.50;99.90;;;;;;5091832;28;20028;-77